SFR601 FACT-FAOR
Flight info
| Callsign | SFR601 |
|---|---|
| Flight time | 1h 40m |
| Altitude | 39000 |
| Route | TETAN1B TETAN UZ2 NIBEX NIBEX1D |
| Aircraft | B738/M-SDE2E3FGHIRWXY/LB1 |
Departure
| Time | 2026-05-07 11:11 |
|---|---|
| Airport | Cape Town International Airport (FACT) |
Arrival
| Time | 2026-05-07 12:52 |
|---|---|
| Airport | O.R. Tambo International Airport (FAOR) |
| Time | Latitude | Longitude | Altitude | Speed | Heading |
|---|---|---|---|---|---|
| 2026-05-07 11:02 | -33.97112 | 18.59875 | 165 ft | 0 kts | 254° |
| 2026-05-07 11:04 | -33.97109 | 18.59888 | 165 ft | 2 kts | 254° |
| 2026-05-07 11:04 | -33.97105 | 18.59906 | 164 ft | 2 kts | 255° |
| 2026-05-07 11:04 | -33.97100 | 18.59924 | 163 ft | 2 kts | 254° |
| 2026-05-07 11:04 | -33.97098 | 18.59942 | 163 ft | 2 kts | 280° |
| 2026-05-07 11:05 | -33.97104 | 18.59958 | 162 ft | 2 kts | 304° |
| 2026-05-07 11:05 | -33.97114 | 18.59971 | 162 ft | 2 kts | 331° |
| 2026-05-07 11:05 | -33.97122 | 18.59975 | 162 ft | 1 kts | 346° |
| 2026-05-07 11:05 | -33.97127 | 18.59976 | 162 ft | 0 kts | 345° |
| 2026-05-07 11:07 | -33.97116 | 18.59973 | 162 ft | 5 kts | 345° |
| 2026-05-07 11:08 | -33.97060 | 18.59956 | 163 ft | 11 kts | 345° |
| 2026-05-07 11:08 | -33.96974 | 18.59929 | 167 ft | 12 kts | 345° |
| 2026-05-07 11:08 | -33.96912 | 18.59910 | 172 ft | 6 kts | 345° |
| 2026-05-07 11:08 | -33.96853 | 18.59891 | 174 ft | 12 kts | 345° |
| 2026-05-07 11:09 | -33.96735 | 18.59852 | 171 ft | 21 kts | 344° |
| 2026-05-07 11:09 | -33.96579 | 18.59797 | 161 ft | 25 kts | 343° |
| 2026-05-07 11:09 | -33.96399 | 18.59753 | 155 ft | 27 kts | 350° |
| 2026-05-07 11:09 | -33.96252 | 18.59726 | 153 ft | 11 kts | 359° |
| 2026-05-07 11:10 | -33.96193 | 18.59748 | 153 ft | 8 kts | 38° |
| 2026-05-07 11:10 | -33.96193 | 18.59806 | 153 ft | 6 kts | 122° |
| 2026-05-07 11:10 | -33.96245 | 18.59872 | 154 ft | 20 kts | 135° |
| 2026-05-07 11:10 | -33.96499 | 18.60176 | 159 ft | 83 kts | 135° |
| 2026-05-07 11:11 | -33.97053 | 18.60839 | 165 ft | 137 kts | 136° |
| 2026-05-07 11:11 | -33.97772 | 18.61700 | 593 ft | 144 kts | 132° |
| 2026-05-07 11:11 | -33.98521 | 18.62554 | 998 ft | 159 kts | 148° |
| 2026-05-07 11:11 | -33.99624 | 18.62973 | 1385 ft | 169 kts | 169° |
| 2026-05-07 11:12 | -34.00856 | 18.63109 | 1656 ft | 185 kts | 173° |
| 2026-05-07 11:12 | -34.02199 | 18.63066 | 1996 ft | 203 kts | 181° |
| 2026-05-07 11:12 | -34.03652 | 18.63029 | 2380 ft | 216 kts | 173° |
| 2026-05-07 11:12 | -34.05189 | 18.63304 | 2786 ft | 231 kts | 165° |
| 2026-05-07 11:13 | -34.06796 | 18.63822 | 3285 ft | 245 kts | 161° |
| 2026-05-07 11:13 | -34.08470 | 18.64430 | 3868 ft | 254 kts | 161° |
| 2026-05-07 11:13 | -34.10158 | 18.65039 | 4568 ft | 258 kts | 161° |
| 2026-05-07 11:13 | -34.11759 | 18.65929 | 5266 ft | 257 kts | 139° |
| 2026-05-07 11:14 | -34.12756 | 18.67685 | 5989 ft | 259 kts | 108° |
| 2026-05-07 11:14 | -34.12919 | 18.69854 | 6695 ft | 264 kts | 84° |
| 2026-05-07 11:14 | -34.12387 | 18.71960 | 7368 ft | 272 kts | 66° |
| 2026-05-07 11:14 | -34.11368 | 18.73926 | 8072 ft | 279 kts | 56° |
| 2026-05-07 11:15 | -34.10154 | 18.75766 | 8763 ft | 284 kts | 52° |
| 2026-05-07 11:15 | -34.08900 | 18.77586 | 9453 ft | 289 kts | 52° |
| 2026-05-07 11:15 | -34.07606 | 18.79483 | 10165 ft | 294 kts | 53° |
| 2026-05-07 11:15 | -34.06310 | 18.81422 | 10693 ft | 306 kts | 53° |
| 2026-05-07 11:16 | -34.04953 | 18.83479 | 11140 ft | 322 kts | 53° |
| 2026-05-07 11:16 | -34.03523 | 18.85653 | 11561 ft | 338 kts | 53° |
| 2026-05-07 11:16 | -34.02025 | 18.87928 | 11969 ft | 354 kts | 53° |
| 2026-05-07 11:16 | -34.00460 | 18.90300 | 12467 ft | 368 kts | 53° |
| 2026-05-07 11:17 | -33.98868 | 18.92705 | 13186 ft | 373 kts | 53° |
| 2026-05-07 11:17 | -33.97246 | 18.95155 | 13923 ft | 378 kts | 53° |
| 2026-05-07 11:17 | -33.95610 | 18.97623 | 14711 ft | 382 kts | 53° |
| 2026-05-07 11:17 | -33.93935 | 19.00151 | 15454 ft | 387 kts | 53° |
| 2026-05-07 11:18 | -33.92259 | 19.02680 | 16218 ft | 392 kts | 53° |
| 2026-05-07 11:18 | -33.90546 | 19.05262 | 16974 ft | 395 kts | 53° |
| 2026-05-07 11:18 | -33.88829 | 19.07850 | 17677 ft | 400 kts | 53° |
| 2026-05-07 11:18 | -33.87079 | 19.10484 | 18367 ft | 404 kts | 53° |
| 2026-05-07 11:19 | -33.85334 | 19.13112 | 18948 ft | 411 kts | 53° |
| 2026-05-07 11:19 | -33.83530 | 19.15825 | 19564 ft | 417 kts | 53° |
| 2026-05-07 11:19 | -33.81717 | 19.18549 | 20169 ft | 422 kts | 52° |
| 2026-05-07 11:19 | -33.79894 | 19.21285 | 20792 ft | 426 kts | 52° |
| 2026-05-07 11:20 | -33.78020 | 19.24095 | 21358 ft | 431 kts | 52° |
| 2026-05-07 11:20 | -33.76135 | 19.26918 | 21932 ft | 435 kts | 52° |
| 2026-05-07 11:20 | -33.74245 | 19.29748 | 22445 ft | 441 kts | 52° |
| 2026-05-07 11:20 | -33.72319 | 19.32629 | 22968 ft | 446 kts | 51° |
| 2026-05-07 11:21 | -33.70378 | 19.35531 | 23492 ft | 450 kts | 51° |
| 2026-05-07 11:21 | -33.68398 | 19.38487 | 24052 ft | 454 kts | 51° |
| 2026-05-07 11:21 | -33.66411 | 19.41452 | 24579 ft | 458 kts | 51° |
| 2026-05-07 11:21 | -33.64429 | 19.44429 | 25082 ft | 462 kts | 51° |
| 2026-05-07 11:22 | -33.62446 | 19.47443 | 25615 ft | 465 kts | 52° |
| 2026-05-07 11:22 | -33.60449 | 19.50499 | 26118 ft | 469 kts | 52° |
| 2026-05-07 11:22 | -33.58425 | 19.53602 | 26618 ft | 472 kts | 52° |
| 2026-05-07 11:22 | -33.56387 | 19.56725 | 27098 ft | 475 kts | 52° |
| 2026-05-07 11:23 | -33.54374 | 19.59806 | 27540 ft | 479 kts | 52° |
| 2026-05-07 11:23 | -33.52300 | 19.62976 | 28018 ft | 482 kts | 51° |
| 2026-05-07 11:23 | -33.50217 | 19.66152 | 28468 ft | 486 kts | 51° |
| 2026-05-07 11:23 | -33.48143 | 19.69311 | 28888 ft | 489 kts | 51° |
| 2026-05-07 11:24 | -33.46030 | 19.72524 | 29315 ft | 492 kts | 51° |
| 2026-05-07 11:24 | -33.43903 | 19.75755 | 29949 ft | 490 kts | 51° |
| 2026-05-07 11:24 | -33.41805 | 19.78941 | 30624 ft | 487 kts | 51° |
| 2026-05-07 11:24 | -33.39723 | 19.82099 | 31267 ft | 483 kts | 50° |
| 2026-05-07 11:25 | -33.37665 | 19.85218 | 31822 ft | 482 kts | 50° |
| 2026-05-07 11:25 | -33.35573 | 19.88384 | 32262 ft | 483 kts | 50° |
| 2026-05-07 11:25 | -33.33504 | 19.91512 | 32715 ft | 483 kts | 50° |
| 2026-05-07 11:25 | -33.31433 | 19.94640 | 33220 ft | 481 kts | 50° |
| 2026-05-07 11:26 | -33.29360 | 19.97765 | 33769 ft | 479 kts | 50° |
| 2026-05-07 11:26 | -33.27252 | 20.00814 | 34246 ft | 477 kts | 48° |
| 2026-05-07 11:26 | -33.25050 | 20.03814 | 34645 ft | 474 kts | 46° |
| 2026-05-07 11:26 | -33.22840 | 20.06727 | 34991 ft | 473 kts | 46° |
| 2026-05-07 11:27 | -33.20626 | 20.09606 | 35255 ft | 474 kts | 45° |
| 2026-05-07 11:27 | -33.18397 | 20.12501 | 35520 ft | 474 kts | 46° |
| 2026-05-07 11:27 | -33.16164 | 20.15411 | 35802 ft | 474 kts | 46° |
| 2026-05-07 11:27 | -33.13952 | 20.18303 | 36087 ft | 473 kts | 46° |
| 2026-05-07 11:28 | -33.11719 | 20.21234 | 36442 ft | 472 kts | 46° |
| 2026-05-07 11:28 | -33.09523 | 20.24122 | 36726 ft | 473 kts | 46° |
| 2026-05-07 11:28 | -33.07323 | 20.27020 | 37052 ft | 472 kts | 46° |
| 2026-05-07 11:28 | -33.05123 | 20.29922 | 37284 ft | 474 kts | 46° |
| 2026-05-07 11:29 | -33.02932 | 20.32813 | 37543 ft | 474 kts | 46° |
| 2026-05-07 11:29 | -33.00721 | 20.35729 | 37844 ft | 473 kts | 46° |
| 2026-05-07 11:29 | -32.98505 | 20.38651 | 38081 ft | 474 kts | 46° |
| 2026-05-07 11:29 | -32.96299 | 20.41559 | 38340 ft | 474 kts | 46° |
| 2026-05-07 11:30 | -32.94112 | 20.44439 | 38586 ft | 474 kts | 46° |
| 2026-05-07 11:30 | -32.91882 | 20.47374 | 38845 ft | 473 kts | 45° |
| 2026-05-07 11:30 | -32.89666 | 20.50287 | 39051 ft | 474 kts | 45° |
| 2026-05-07 11:30 | -32.87450 | 20.53197 | 39123 ft | 477 kts | 45° |
| 2026-05-07 11:31 | -32.83016 | 20.59014 | 39129 ft | 475 kts | 45° |
| 2026-05-07 11:31 | -32.78593 | 20.64807 | 39126 ft | 474 kts | 46° |
| 2026-05-07 11:32 | -32.71939 | 20.73507 | 39123 ft | 475 kts | 45° |
| 2026-05-07 11:33 | -32.67497 | 20.79302 | 39124 ft | 475 kts | 45° |
| 2026-05-07 11:33 | -32.63050 | 20.85094 | 39121 ft | 475 kts | 45° |
| 2026-05-07 11:34 | -32.58622 | 20.90854 | 39122 ft | 475 kts | 45° |
| 2026-05-07 11:34 | -32.54155 | 20.96652 | 39116 ft | 476 kts | 45° |
| 2026-05-07 11:35 | -32.49699 | 21.02428 | 39119 ft | 475 kts | 45° |
| 2026-05-07 11:35 | -32.45246 | 21.08191 | 39120 ft | 476 kts | 44° |
| 2026-05-07 11:36 | -32.40751 | 21.14001 | 39119 ft | 476 kts | 45° |
| 2026-05-07 11:36 | -32.36289 | 21.19758 | 39123 ft | 477 kts | 45° |
| 2026-05-07 11:37 | -32.31801 | 21.25540 | 39118 ft | 477 kts | 44° |
| 2026-05-07 11:37 | -32.27340 | 21.31276 | 39117 ft | 477 kts | 45° |
| 2026-05-07 11:38 | -32.22838 | 21.37057 | 39118 ft | 477 kts | 44° |
| 2026-05-07 11:38 | -32.18367 | 21.42789 | 39117 ft | 477 kts | 44° |
| 2026-05-07 11:39 | -32.13879 | 21.48535 | 39117 ft | 478 kts | 44° |
| 2026-05-07 11:39 | -32.09362 | 21.54307 | 39127 ft | 479 kts | 44° |
| 2026-05-07 11:40 | -32.04839 | 21.60079 | 39123 ft | 479 kts | 44° |
| 2026-05-07 11:40 | -32.00351 | 21.65798 | 39116 ft | 479 kts | 44° |
| 2026-05-07 11:41 | -31.95821 | 21.71559 | 39122 ft | 478 kts | 44° |
| 2026-05-07 11:41 | -31.91306 | 21.77293 | 39125 ft | 479 kts | 43° |
| 2026-05-07 11:42 | -31.86758 | 21.83060 | 39122 ft | 478 kts | 43° |
| 2026-05-07 11:42 | -31.82243 | 21.88779 | 39125 ft | 478 kts | 43° |
| 2026-05-07 11:43 | -31.77722 | 21.94496 | 39125 ft | 479 kts | 44° |
| 2026-05-07 11:43 | -31.73201 | 22.00201 | 39123 ft | 480 kts | 43° |
| 2026-05-07 11:44 | -31.68660 | 22.05921 | 39122 ft | 480 kts | 43° |
| 2026-05-07 11:44 | -31.64125 | 22.11628 | 39126 ft | 479 kts | 43° |
| 2026-05-07 11:45 | -31.59568 | 22.17355 | 39119 ft | 481 kts | 43° |
| 2026-05-07 11:45 | -31.55005 | 22.23080 | 39118 ft | 480 kts | 43° |
| 2026-05-07 11:46 | -31.50474 | 22.28758 | 39119 ft | 479 kts | 43° |
| 2026-05-07 11:46 | -31.45911 | 22.34466 | 39112 ft | 479 kts | 43° |
| 2026-05-07 11:47 | -31.41369 | 22.40134 | 39119 ft | 479 kts | 43° |
| 2026-05-07 11:47 | -31.36827 | 22.45794 | 39114 ft | 479 kts | 43° |
| 2026-05-07 11:48 | -31.32260 | 22.51477 | 39110 ft | 480 kts | 43° |
| 2026-05-07 11:48 | -31.27720 | 22.57123 | 39112 ft | 479 kts | 43° |
| 2026-05-07 11:49 | -31.23147 | 22.62802 | 39114 ft | 480 kts | 43° |
| 2026-05-07 11:49 | -31.18559 | 22.68486 | 39115 ft | 480 kts | 42° |
| 2026-05-07 11:50 | -31.13980 | 22.74147 | 39119 ft | 481 kts | 42° |
| 2026-05-07 11:50 | -31.09431 | 22.79768 | 39117 ft | 479 kts | 42° |
| 2026-05-07 11:51 | -31.04839 | 22.85434 | 39119 ft | 480 kts | 42° |
| 2026-05-07 11:51 | -31.00270 | 22.91057 | 39121 ft | 482 kts | 42° |
| 2026-05-07 11:52 | -30.95662 | 22.96704 | 39118 ft | 480 kts | 42° |
| 2026-05-07 11:52 | -30.91062 | 23.02331 | 39114 ft | 480 kts | 42° |
| 2026-05-07 11:53 | -30.86460 | 23.07955 | 39124 ft | 480 kts | 42° |
| 2026-05-07 11:53 | -30.81862 | 23.13566 | 39115 ft | 480 kts | 42° |
| 2026-05-07 11:54 | -30.77248 | 23.19186 | 39114 ft | 482 kts | 42° |
| 2026-05-07 11:54 | -30.72634 | 23.24800 | 39108 ft | 481 kts | 41° |
| 2026-05-07 11:55 | -30.68023 | 23.30403 | 39113 ft | 482 kts | 41° |
| 2026-05-07 11:55 | -30.63374 | 23.36042 | 39100 ft | 483 kts | 41° |
| 2026-05-07 11:56 | -30.58708 | 23.41694 | 39103 ft | 484 kts | 41° |
| 2026-05-07 11:56 | -30.54082 | 23.47293 | 39102 ft | 483 kts | 41° |
| 2026-05-07 11:57 | -30.49452 | 23.52888 | 39101 ft | 482 kts | 41° |
| 2026-05-07 11:57 | -30.44818 | 23.58476 | 39102 ft | 481 kts | 41° |
| 2026-05-07 11:58 | -30.40171 | 23.64073 | 39099 ft | 483 kts | 41° |
| 2026-05-07 11:58 | -30.35526 | 23.69655 | 39096 ft | 483 kts | 41° |
| 2026-05-07 11:59 | -30.30864 | 23.75256 | 39103 ft | 483 kts | 41° |
| 2026-05-07 11:59 | -30.26216 | 23.80829 | 39101 ft | 484 kts | 41° |
| 2026-05-07 12:00 | -30.21532 | 23.86436 | 39098 ft | 484 kts | 41° |
| 2026-05-07 12:00 | -30.16878 | 23.92000 | 39102 ft | 485 kts | 40° |
| 2026-05-07 12:01 | -30.12185 | 23.97601 | 39104 ft | 485 kts | 40° |
| 2026-05-07 12:01 | -30.07501 | 24.03184 | 39103 ft | 485 kts | 40° |
| 2026-05-07 12:02 | -30.02790 | 24.08793 | 39106 ft | 485 kts | 40° |
| 2026-05-07 12:02 | -29.98115 | 24.14350 | 39113 ft | 485 kts | 40° |
| 2026-05-07 12:03 | -29.93413 | 24.19929 | 39107 ft | 486 kts | 40° |
| 2026-05-07 12:03 | -29.88691 | 24.25528 | 39116 ft | 486 kts | 40° |
| 2026-05-07 12:04 | -29.84005 | 24.31072 | 39111 ft | 485 kts | 40° |
| 2026-05-07 12:04 | -29.79299 | 24.36634 | 39112 ft | 485 kts | 40° |
| 2026-05-07 12:05 | -29.74599 | 24.42178 | 39111 ft | 486 kts | 40° |
| 2026-05-07 12:05 | -29.69885 | 24.47732 | 39112 ft | 485 kts | 40° |
| 2026-05-07 12:06 | -29.65174 | 24.53279 | 39109 ft | 485 kts | 40° |
| 2026-05-07 12:06 | -29.60439 | 24.58843 | 39108 ft | 485 kts | 40° |
| 2026-05-07 12:07 | -29.55714 | 24.64383 | 39106 ft | 486 kts | 40° |
| 2026-05-07 12:07 | -29.50988 | 24.69921 | 39096 ft | 484 kts | 39° |
| 2026-05-07 12:08 | -29.46305 | 24.75400 | 39091 ft | 483 kts | 39° |
| 2026-05-07 12:08 | -29.41595 | 24.80902 | 39090 ft | 482 kts | 39° |
| 2026-05-07 12:09 | -29.36904 | 24.86376 | 39094 ft | 484 kts | 39° |
| 2026-05-07 12:09 | -29.32162 | 24.91898 | 39096 ft | 486 kts | 39° |
| 2026-05-07 12:10 | -29.27430 | 24.97403 | 39097 ft | 486 kts | 39° |
| 2026-05-07 12:10 | -29.22705 | 25.02895 | 39097 ft | 485 kts | 39° |
| 2026-05-07 12:11 | -29.17951 | 25.08408 | 39096 ft | 486 kts | 39° |
| 2026-05-07 12:11 | -29.13227 | 25.13882 | 39098 ft | 484 kts | 39° |
| 2026-05-07 12:12 | -29.08511 | 25.19338 | 39102 ft | 484 kts | 39° |
| 2026-05-07 12:12 | -29.03805 | 25.24775 | 39102 ft | 485 kts | 39° |
| 2026-05-07 12:13 | -28.99041 | 25.30268 | 39105 ft | 486 kts | 39° |
| 2026-05-07 12:13 | -28.94290 | 25.35739 | 39103 ft | 486 kts | 39° |
| 2026-05-07 12:14 | -28.89518 | 25.41230 | 39100 ft | 487 kts | 39° |
| 2026-05-07 12:14 | -28.84763 | 25.46694 | 39102 ft | 485 kts | 39° |
| 2026-05-07 12:15 | -28.80032 | 25.52124 | 39106 ft | 485 kts | 39° |
| 2026-05-07 12:15 | -28.75295 | 25.57550 | 39105 ft | 485 kts | 38° |
| 2026-05-07 12:16 | -28.70544 | 25.62987 | 39106 ft | 485 kts | 39° |
| 2026-05-07 12:16 | -28.65761 | 25.68452 | 39091 ft | 485 kts | 38° |
| 2026-05-07 12:17 | -28.61035 | 25.73844 | 39105 ft | 485 kts | 38° |
| 2026-05-07 12:17 | -28.56274 | 25.79272 | 39107 ft | 483 kts | 38° |
| 2026-05-07 12:18 | -28.51517 | 25.84685 | 39096 ft | 484 kts | 38° |
| 2026-05-07 12:18 | -28.46797 | 25.90050 | 39098 ft | 483 kts | 38° |
| 2026-05-07 12:19 | -28.42036 | 25.95451 | 39108 ft | 483 kts | 38° |
| 2026-05-07 12:19 | -28.37283 | 26.00838 | 39109 ft | 484 kts | 38° |
| 2026-05-07 12:20 | -28.32540 | 26.06203 | 39104 ft | 483 kts | 37° |
| 2026-05-07 12:20 | -28.27764 | 26.11599 | 39101 ft | 482 kts | 37° |
| 2026-05-07 12:21 | -28.23023 | 26.16948 | 39102 ft | 484 kts | 37° |
| 2026-05-07 12:21 | -28.18276 | 26.22300 | 39109 ft | 482 kts | 37° |
| 2026-05-07 12:22 | -28.13496 | 26.27680 | 39113 ft | 483 kts | 37° |
| 2026-05-07 12:22 | -28.08752 | 26.33013 | 39105 ft | 483 kts | 37° |
| 2026-05-07 12:23 | -28.03995 | 26.38353 | 39107 ft | 483 kts | 37° |
| 2026-05-07 12:23 | -27.99225 | 26.43702 | 39111 ft | 482 kts | 37° |
| 2026-05-07 12:24 | -27.94478 | 26.49015 | 39114 ft | 482 kts | 37° |
| 2026-05-07 12:24 | -27.89720 | 26.54335 | 39116 ft | 482 kts | 37° |
| 2026-05-07 12:25 | -27.84928 | 26.59689 | 39115 ft | 482 kts | 37° |
| 2026-05-07 12:25 | -27.80184 | 26.64981 | 39105 ft | 482 kts | 37° |
| 2026-05-07 12:26 | -27.75387 | 26.70326 | 39108 ft | 482 kts | 36° |
| 2026-05-07 12:26 | -27.70646 | 26.75599 | 39108 ft | 481 kts | 36° |
| 2026-05-07 12:27 | -27.65865 | 26.80913 | 39123 ft | 483 kts | 36° |
| 2026-05-07 12:27 | -27.61104 | 26.86198 | 39113 ft | 481 kts | 36° |
| 2026-05-07 12:28 | -27.56356 | 26.91461 | 39120 ft | 481 kts | 36° |
| 2026-05-07 12:28 | -27.51581 | 26.96746 | 39119 ft | 479 kts | 36° |
| 2026-05-07 12:29 | -27.46816 | 27.02013 | 39117 ft | 480 kts | 36° |
| 2026-05-07 12:29 | -27.42071 | 27.07250 | 39120 ft | 480 kts | 36° |
| 2026-05-07 12:30 | -27.37290 | 27.12522 | 39117 ft | 480 kts | 36° |
| 2026-05-07 12:30 | -27.32551 | 27.17739 | 39111 ft | 479 kts | 36° |
| 2026-05-07 12:31 | -27.27776 | 27.22992 | 39107 ft | 478 kts | 36° |
| 2026-05-07 12:31 | -27.23054 | 27.28183 | 39164 ft | 470 kts | 36° |
| 2026-05-07 12:31 | -27.20733 | 27.30739 | 38877 ft | 469 kts | 36° |
| 2026-05-07 12:32 | -27.18351 | 27.33252 | 38259 ft | 469 kts | 33° |
| 2026-05-07 12:32 | -27.15911 | 27.35637 | 37624 ft | 471 kts | 31° |
| 2026-05-07 12:32 | -27.13403 | 27.37988 | 36994 ft | 473 kts | 31° |
| 2026-05-07 12:32 | -27.10839 | 27.40353 | 36349 ft | 473 kts | 30° |
| 2026-05-07 12:33 | -27.05780 | 27.45025 | 35064 ft | 472 kts | 31° |
| 2026-05-07 12:33 | -27.03255 | 27.47370 | 34377 ft | 476 kts | 31° |
| 2026-05-07 12:33 | -27.00686 | 27.49767 | 33647 ft | 477 kts | 31° |
| 2026-05-07 12:34 | -26.98159 | 27.52136 | 32957 ft | 476 kts | 31° |
| 2026-05-07 12:34 | -26.95638 | 27.54507 | 32324 ft | 475 kts | 31° |
| 2026-05-07 12:34 | -26.93092 | 27.56905 | 31673 ft | 474 kts | 31° |
| 2026-05-07 12:34 | -26.90585 | 27.59268 | 31035 ft | 473 kts | 32° |
| 2026-05-07 12:35 | -26.88075 | 27.61634 | 30382 ft | 471 kts | 32° |
| 2026-05-07 12:35 | -26.85583 | 27.63982 | 29734 ft | 470 kts | 32° |
| 2026-05-07 12:35 | -26.83088 | 27.66332 | 29037 ft | 468 kts | 31° |
| 2026-05-07 12:35 | -26.80570 | 27.68662 | 28313 ft | 463 kts | 31° |
| 2026-05-07 12:36 | -26.78056 | 27.70867 | 27600 ft | 459 kts | 29° |
| 2026-05-07 12:36 | -26.75510 | 27.73021 | 26886 ft | 456 kts | 29° |
| 2026-05-07 12:36 | -26.73004 | 27.75109 | 26190 ft | 452 kts | 29° |
| 2026-05-07 12:36 | -26.70492 | 27.77193 | 25483 ft | 449 kts | 29° |
| 2026-05-07 12:37 | -26.67989 | 27.79272 | 24778 ft | 445 kts | 29° |
| 2026-05-07 12:37 | -26.65517 | 27.81333 | 24087 ft | 441 kts | 30° |
| 2026-05-07 12:37 | -26.63089 | 27.83362 | 23410 ft | 437 kts | 30° |
| 2026-05-07 12:37 | -26.60662 | 27.85397 | 22856 ft | 430 kts | 30° |
| 2026-05-07 12:38 | -26.58301 | 27.87382 | 22309 ft | 423 kts | 30° |
| 2026-05-07 12:38 | -26.55988 | 27.89328 | 21766 ft | 417 kts | 30° |
| 2026-05-07 12:38 | -26.53687 | 27.91263 | 21158 ft | 412 kts | 30° |
| 2026-05-07 12:38 | -26.51406 | 27.93180 | 20544 ft | 408 kts | 31° |
| 2026-05-07 12:39 | -26.49145 | 27.95079 | 19931 ft | 405 kts | 31° |
| 2026-05-07 12:39 | -26.46901 | 27.96964 | 19321 ft | 400 kts | 31° |
| 2026-05-07 12:39 | -26.44693 | 27.98819 | 18719 ft | 396 kts | 31° |
| 2026-05-07 12:39 | -26.42522 | 28.00642 | 18121 ft | 392 kts | 31° |
| 2026-05-07 12:40 | -26.40361 | 28.02455 | 17538 ft | 388 kts | 31° |
| 2026-05-07 12:40 | -26.38186 | 28.04240 | 16955 ft | 383 kts | 29° |
| 2026-05-07 12:40 | -26.35961 | 28.05770 | 16368 ft | 375 kts | 21° |
| 2026-05-07 12:40 | -26.33567 | 28.06844 | 15775 ft | 365 kts | 12° |
| 2026-05-07 12:41 | -26.31123 | 28.07594 | 15186 ft | 360 kts | 8° |
| 2026-05-07 12:41 | -26.28790 | 28.08186 | 14608 ft | 356 kts | 7° |
| 2026-05-07 12:41 | -26.26402 | 28.08765 | 14008 ft | 352 kts | 7° |
| 2026-05-07 12:41 | -26.23994 | 28.09363 | 13388 ft | 350 kts | 7° |
| 2026-05-07 12:42 | -26.21635 | 28.09973 | 12921 ft | 343 kts | 8° |
| 2026-05-07 12:42 | -26.19374 | 28.10580 | 12739 ft | 328 kts | 8° |
| 2026-05-07 12:42 | -26.17186 | 28.11175 | 12272 ft | 324 kts | 9° |
| 2026-05-07 12:42 | -26.14995 | 28.11770 | 11722 ft | 323 kts | 9° |
| 2026-05-07 12:43 | -26.12811 | 28.12364 | 11210 ft | 320 kts | 9° |
| 2026-05-07 12:43 | -26.10645 | 28.12953 | 10697 ft | 318 kts | 10° |
| 2026-05-07 12:43 | -26.08514 | 28.13532 | 10190 ft | 316 kts | 11° |
| 2026-05-07 12:43 | -26.06383 | 28.14111 | 9679 ft | 314 kts | 11° |
| 2026-05-07 12:44 | -26.04251 | 28.14690 | 9165 ft | 312 kts | 11° |
| 2026-05-07 12:44 | -26.02146 | 28.15262 | 8651 ft | 310 kts | 11° |
| 2026-05-07 12:44 | -26.00060 | 28.15827 | 8167 ft | 307 kts | 11° |
| 2026-05-07 12:44 | -25.98005 | 28.16384 | 7989 ft | 293 kts | 11° |
| 2026-05-07 12:45 | -25.96102 | 28.16904 | 7972 ft | 274 kts | 12° |
| 2026-05-07 12:45 | -25.94306 | 28.17394 | 7980 ft | 258 kts | 12° |
| 2026-05-07 12:45 | -25.92590 | 28.17866 | 7982 ft | 247 kts | 13° |
| 2026-05-07 12:45 | -25.90985 | 28.18561 | 7984 ft | 250 kts | 31° |
| 2026-05-07 12:46 | -25.89804 | 28.19970 | 7982 ft | 251 kts | 66° |
| 2026-05-07 12:46 | -25.89465 | 28.21853 | 7991 ft | 252 kts | 94° |
| 2026-05-07 12:46 | -25.89748 | 28.23763 | 7993 ft | 250 kts | 104° |
| 2026-05-07 12:46 | -25.90116 | 28.25661 | 7986 ft | 250 kts | 104° |
| 2026-05-07 12:47 | -25.90530 | 28.27534 | 7988 ft | 249 kts | 111° |
| 2026-05-07 12:47 | -25.91424 | 28.29106 | 7984 ft | 241 kts | 143° |
| 2026-05-07 12:47 | -25.92919 | 28.29837 | 7988 ft | 234 kts | 178° |
| 2026-05-07 12:47 | -25.94533 | 28.29650 | 7994 ft | 229 kts | 196° |
| 2026-05-07 12:48 | -25.96047 | 28.29172 | 7988 ft | 229 kts | 199° |
| 2026-05-07 12:48 | -25.97574 | 28.28674 | 7984 ft | 226 kts | 198° |
| 2026-05-07 12:48 | -25.99051 | 28.28217 | 7927 ft | 213 kts | 198° |
| 2026-05-07 12:48 | -26.00463 | 28.27791 | 7665 ft | 206 kts | 197° |
| 2026-05-07 12:49 | -26.01799 | 28.27384 | 7387 ft | 192 kts | 197° |
| 2026-05-07 12:49 | -26.03034 | 28.27001 | 7143 ft | 175 kts | 197° |
| 2026-05-07 12:49 | -26.04163 | 28.26652 | 6918 ft | 160 kts | 198° |
| 2026-05-07 12:49 | -26.05193 | 28.26337 | 6717 ft | 153 kts | 199° |
| 2026-05-07 12:50 | -26.06232 | 28.26032 | 6508 ft | 154 kts | 197° |
| 2026-05-07 12:50 | -26.07273 | 28.25692 | 6307 ft | 155 kts | 200° |
| 2026-05-07 12:50 | -26.08312 | 28.25373 | 6112 ft | 155 kts | 196° |
| 2026-05-07 12:50 | -26.09379 | 28.25072 | 5898 ft | 158 kts | 198° |
| 2026-05-07 12:51 | -26.10447 | 28.24743 | 5669 ft | 159 kts | 199° |
| 2026-05-07 12:51 | -26.11507 | 28.24402 | 5519 ft | 152 kts | 197° |
| 2026-05-07 12:51 | -26.12370 | 28.24135 | 5520 ft | 89 kts | 197° |
| 2026-05-07 12:51 | -26.12794 | 28.24005 | 5523 ft | 51 kts | 196° |
| 2026-05-07 12:52 | -26.13095 | 28.23911 | 5532 ft | 27 kts | 195° |
| 2026-05-07 12:52 | -26.13197 | 28.23828 | 5536 ft | 15 kts | 286° |
| 2026-05-07 12:52 | -26.13153 | 28.23764 | 5537 ft | 1 kts | 310° |
| 2026-05-07 12:52 | -26.13150 | 28.23759 | 5537 ft | 0 kts | 306° |
| 2026-05-07 12:53 | -26.13149 | 28.23757 | 5537 ft | 0 kts | 300° |
| 2026-05-07 12:53 | -26.13152 | 28.23724 | 5538 ft | 6 kts | 237° |
| 2026-05-07 12:54 | -26.13203 | 28.23690 | 5541 ft | 11 kts | 201° |
| 2026-05-07 12:54 | -26.13290 | 28.23658 | 5546 ft | 14 kts | 199° |
| 2026-05-07 12:54 | -26.13387 | 28.23623 | 5551 ft | 13 kts | 194° |
| 2026-05-07 12:54 | -26.13469 | 28.23603 | 5554 ft | 11 kts | 195° |
| 2026-05-07 12:55 | -26.13543 | 28.23578 | 5555 ft | 10 kts | 198° |
| 2026-05-07 12:55 | -26.13625 | 28.23548 | 5558 ft | 13 kts | 198° |
| 2026-05-07 12:55 | -26.13720 | 28.23518 | 5562 ft | 14 kts | 195° |
| 2026-05-07 12:55 | -26.13809 | 28.23490 | 5563 ft | 6 kts | 220° |
| 2026-05-07 12:56 | -26.13789 | 28.23432 | 5567 ft | 12 kts | 295° |
| 2026-05-07 12:56 | -26.13753 | 28.23343 | 5573 ft | 7 kts | 305° |
| 2026-05-07 12:56 | -26.13709 | 28.23335 | 5574 ft | 7 kts | 11° |
| 2026-05-07 12:56 | -26.13666 | 28.23324 | 5575 ft | 6 kts | 290° |
| 2026-05-07 12:57 | -26.13661 | 28.23292 | 5577 ft | 2 kts | 276° |
| 2026-05-07 12:57 | -26.13659 | 28.23270 | 5577 ft | 2 kts | 276° |
| 2026-05-07 12:57 | -26.13658 | 28.23257 | 5577 ft | 0 kts | 276° |